Terminal Aerodrome Forecast
Issued by NWS Milwaukee/Sullivan, WI

Home | Current Version | Previous Version | Text Only | Print | Product List | Glossary On
Versions: 1 2 3 4 5 6 7 8 9 10 11 12 13 14 15 16 17 18 19 20 21 22 23 24 25 26 27 28 29 30 31 32 33
000
FTUS43 KMKX 181720
TAFMKE
TAF
KMKE 181720Z 1818/1924 35018G27KT P6SM OVC010
     FM182100 34021G29KT P6SM OVC020
     FM190700 32014G23KT P6SM BKN030
     FM191600 30012G20KT P6SM FEW250
     FM192100 27011KT P6SM SCT200=

USA.gov is the U.S. government's official web portal to all federal, state and local government web resources and services.